Aérodrome :
LOGIN :

S'inscrire | Disclaimer

   EN    FR    IT 

 










Légende :    VFR   VFR Marginal   IFR   IFR Intensif   IFR Très Intensif
Visi : 
Plafond : 
>= 8 km
>= 3000ft
5 à 8 km
1000 à 3000 ft
1500m à 5 km
500 à 1000 ft
800 à 1500m
200 à 500 ft
< 800m
< 200 ft
Symboles :   Orages  Brouillard  Fortes neiges  Fortes précipitations  Vent > 20 kt
SIGMETs :   Divers  Orages  Givrage  Turbulence  Onde Orograph.  Cendres Volcan.







- Altitude de l'aérodrome : 218 ft
- Code IATA : LBG
- Voir les cartes d'approche


LFPB - Paris / Le Bourget

DERNIER METAR :
  • 220130Z AUTO 15006KT CAVOK 20/12 Q1007 NOSIG

METARs EXPIRÉS :
  • 220100Z AUTO VRB03KT CAVOK 20/12 Q1007 NOSIG
  • 220030Z AUTO VRB03KT CAVOK 20/12 Q1007 NOSIG
  • 220000Z AUTO VRB02KT CAVOK 20/12 Q1007 NOSIG
  • 212330Z AUTO 12004KT CAVOK 20/12 Q1008 NOSIG
  • 212300Z AUTO 09003KT CAVOK 19/12 Q1008 NOSIG

TAF TAF LFPB
Valide du 22 à 00h jusqu'au 23 à 00h UTC


212300Z 2200/2224 13010KT CAVOK
BECMG 2209/2211 20010G20KT
TEMPO 2211/2215 24015G30KT 3500 TSRA SCT014CB BKN025
ATIS : +33 1 48 62 43 92
Pas de NOTAMs connus pour ce terrain.



MET'MAP, la Météo Aéronautique d'un coup d'oeil ! - Copyright ORBIFLY Décembre 2007 - Disclaimer

ORBIFLY MET'MAP TEAM :

Programmation & Développement : Alexandra Zaïnal
Conception & Développement : Baudouin d'Aumeries
Co-Programmation & Développement : Marc-Olivier Méhu
Soutien technique & logistique : Manuel Goepfert

Contact : metmap@orbifly.com




SOURCES & CREDITS :

   NOAA